Terminal Aerodrome Forecast
Issued by NWS

Home | Current Version | Previous Version | Text Only | Print | Product List | Glossary On
Versions: 1 2 3 4 5 6 7 8 9 10 11 12 13 14 15 16 17 18 19
312
FTUS41 KBTV 212335
TAFRUT
TAF
KRUT 212335Z 2200/2224 VRB03KT P6SM OVC020
     FM220500 00000KT 5SM BR OVC025
     FM221400 VRB03KT P6SM OVC020
     FM222200 11008KT P6SM OVC020=

USA.gov is the U.S. government's official web portal to all federal, state and local government web resources and services.